Time;durP1;ratioP1;P1;durP2;ratioP2;P2;SDS_P1;SDS_P2;PMS_P1;PMS_P2;Temp;Humidity;BMP_temperature;BMP_pressure;BME280_temperature;BME280_humidity;BME280_pressure;Samples;Min_cycle;Max_cycle;Signal;HPM_P1;HPM_P2
2021/11/02 00:00:20;;;;;;;1.75;0.40;;;6.50;87.80;;;;;;5072502;28;20037;-78
2021/11/02 00:02:51;;;;;;;2.50;0.60;;;6.60;87.70;;;;;;5081718;28;20512;-78
2021/11/02 00:05:19;;;;;;;1.38;0.73;;;6.60;87.70;;;;;;5092453;28;20051;-78
2021/11/02 00:07:47;;;;;;;1.17;0.28;;;6.70;87.60;;;;;;5085959;28;20386;-77
2021/11/02 00:10:15;;;;;;;0.40;0.40;;;6.70;87.50;;;;;;5073420;28;20048;-78
2021/11/02 00:12:43;;;;;;;1.40;0.47;;;6.70;87.40;;;;;;5071423;28;20501;-78
2021/11/02 00:15:12;;;;;;;0.63;0.30;;;6.70;87.40;;;;;;5072738;28;20040;-78
2021/11/02 00:17:42;;;;;;;0.98;0.40;;;6.70;87.30;;;;;;5076694;28;20041;-79
2021/11/02 00:20:12;;;;;;;1.77;0.40;;;6.80;87.20;;;;;;5103015;28;20056;-78
2021/11/02 00:22:41;;;;;;;1.48;0.20;;;6.80;87.20;;;;;;5105224;28;20511;-79
2021/11/02 00:25:11;;;;;;;0.47;0.30;;;6.80;87.10;;;;;;5099675;28;20037;-79
2021/11/02 00:27:40;;;;;;;0.38;0.20;;;6.80;87.20;;;;;;5055966;28;20055;-79
2021/11/02 00:30:12;;;;;;;1.17;0.30;;;6.80;87.00;;;;;;5075188;28;20053;-78
2021/11/02 00:32:43;;;;;;;0.50;0.30;;;6.80;86.70;;;;;;5087196;28;20055;-78
2021/11/02 00:35:11;;;;;;;1.75;0.50;;;6.90;86.60;;;;;;5067863;28;20061;-78
2021/11/02 00:37:39;;;;;;;0.93;0.22;;;6.90;86.50;;;;;;5072595;28;20059;-78
2021/11/02 00:40:09;;;;;;;1.02;0.40;;;7.00;86.50;;;;;;5072933;28;20048;-78
2021/11/02 00:42:39;;;;;;;2.92;0.40;;;7.00;86.40;;;;;;5093468;28;20047;-76
2021/11/02 00:45:11;;;;;;;1.70;0.40;;;7.00;86.50;;;;;;5087589;28;20056;-78
2021/11/02 00:47:40;;;;;;;2.25;0.88;;;7.00;86.50;;;;;;5062888;28;20056;-77
2021/11/02 00:50:10;;;;;;;2.75;0.50;;;7.00;86.60;;;;;;5082758;28;20488;-78
2021/11/02 00:52:42;;;;;;;2.40;0.82;;;6.90;86.70;;;;;;5074464;28;20052;-79
2021/11/02 00:55:10;;;;;;;1.77;0.70;;;6.90;86.80;;;;;;5091300;28;20044;-79
2021/11/02 00:57:38;;;;;;;0.50;0.30;;;6.90;87.00;;;;;;5091344;28;20051;-79
2021/11/02 01:00:09;;;;;;;0.90;0.50;;;6.90;87.10;;;;;;5091593;28;20386;-79
2021/11/02 01:02:37;;;;;;;1.92;0.52;;;6.80;87.20;;;;;;5091608;28;20044;-78
2021/11/02 01:05:05;;;;;;;1.23;0.52;;;6.80;87.30;;;;;;5072118;28;20052;-78
2021/11/02 01:07:33;;;;;;;0.57;0.40;;;6.80;87.40;;;;;;5073050;28;20390;-78
2021/11/02 01:10:05;;;;;;;0.52;0.40;;;6.80;87.50;;;;;;5052534;28;20406;-78
2021/11/02 01:12:33;;;;;;;0.45;0.30;;;6.80;87.60;;;;;;5071147;28;20063;-78
2021/11/02 01:15:00;;;;;;;0.80;0.55;;;6.70;87.60;;;;;;5075782;28;20405;-79
2021/11/02 01:17:28;;;;;;;6.07;1.52;;;6.80;87.70;;;;;;5079139;28;20053;-78
2021/11/02 01:19:56;;;;;;;2.45;0.47;;;6.70;87.80;;;;;;5078513;28;20047;-78
2021/11/02 01:22:23;;;;;;;3.70;0.60;;;6.70;87.90;;;;;;5084083;28;20060;-78
2021/11/02 01:24:51;;;;;;;0.90;0.63;;;6.80;87.90;;;;;;5078359;28;20032;-78
2021/11/02 01:27:22;;;;;;;1.95;0.80;;;6.80;88.00;;;;;;5090228;28;20055;-78
2021/11/02 01:29:50;;;;;;;0.98;0.65;;;6.80;88.00;;;;;;5076802;28;20039;-79
2021/11/02 01:32:18;;;;;;;2.10;0.60;;;6.80;88.10;;;;;;5076422;28;20045;-79
2021/11/02 01:34:49;;;;;;;3.22;0.75;;;6.80;88.10;;;;;;5090686;28;20051;-78
2021/11/02 01:37:17;;;;;;;1.50;0.70;;;6.80;88.20;;;;;;5084108;28;20068;-78
2021/11/02 01:39:45;;;;;;;1.65;0.73;;;6.80;88.30;;;;;;5072598;28;20067;-77
2021/11/02 01:42:13;;;;;;;0.93;0.60;;;6.70;88.40;;;;;;5070827;28;20059;-77
2021/11/02 01:44:43;;;;;;;2.28;0.80;;;6.70;88.50;;;;;;5089595;28;20051;-77
2021/11/02 01:47:17;;;;;;;2.55;0.80;;;6.70;88.50;;;;;;5083194;28;20059;-77
2021/11/02 01:49:45;;;;;;;2.00;0.80;;;6.70;88.60;;;;;;5071832;28;20044;-79
2021/11/02 01:52:13;;;;;;;1.10;0.80;;;6.70;88.70;;;;;;5071869;28;20059;-78
2021/11/02 01:54:43;;;;;;;2.42;0.60;;;6.70;88.80;;;;;;5063845;28;20044;-77
2021/11/02 01:57:10;;;;;;;3.55;0.90;;;6.70;88.80;;;;;;5070882;28;20418;-78
2021/11/02 01:59:39;;;;;;;1.80;0.80;;;6.70;88.90;;;;;;5086808;28;20039;-78
2021/11/02 02:02:38;;;;;;;1.73;0.73;;;6.70;89.00;;;;;;5081905;28;20055;-78
2021/11/02 02:05:23;;;;;;;2.97;1.00;;;6.80;89.10;;;;;;5073923;28;20078;-78
2021/11/02 02:08:24;;;;;;;3.72;1.08;;;6.80;89.10;;;;;;5083836;28;20063;-78
2021/11/02 02:11:06;;;;;;;2.22;0.77;;;6.80;89.00;;;;;;5070468;28;20045;-77
2021/11/02 02:13:45;;;;;;;2.20;1.17;;;6.80;89.00;;;;;;5060376;28;20068;-78
2021/11/02 02:16:37;;;;;;;5.32;1.10;;;6.80;88.90;;;;;;5074637;28;20053;-78
2021/11/02 02:19:17;;;;;;;2.35;1.10;;;6.70;88.90;;;;;;5071295;28;20052;-78
2021/11/02 02:22:01;;;;;;;5.03;1.00;;;6.70;88.90;;;;;;5063553;28;20032;-78
2021/11/02 02:25:13;;;;;;;2.47;1.05;;;6.70;88.90;;;;;;5090203;28;20040;-78
2021/11/02 02:27:44;;;;;;;3.40;0.80;;;6.60;89.00;;;;;;5077458;28;20047;-78
2021/11/02 02:30:16;;;;;;;2.55;0.90;;;6.50;89.10;;;;;;5085287;28;20036;-78
2021/11/02 02:32:49;;;;;;;1.80;0.88;;;6.40;89.20;;;;;;5078306;28;20946;-78
2021/11/02 02:35:19;;;;;;;2.80;1.00;;;6.30;89.30;;;;;;5094060;28;20047;-78
2021/11/02 02:37:51;;;;;;;5.65;1.40;;;6.30;89.40;;;;;;5090019;28;20044;-78
2021/11/02 02:40:21;;;;;;;2.88;1.02;;;6.20;89.50;;;;;;5076500;28;20505;-78
2021/11/02 02:42:51;;;;;;;3.38;1.10;;;6.10;89.70;;;;;;5072534;28;20048;-78
2021/11/02 02:45:21;;;;;;;3.90;1.23;;;6.00;89.80;;;;;;5059099;28;20056;-78
2021/11/02 02:47:50;;;;;;;2.67;1.50;;;5.90;90.00;;;;;;5090914;28;20056;-78
2021/11/02 02:50:19;;;;;;;3.13;1.02;;;5.90;90.10;;;;;;5073701;28;20049;-78
2021/11/02 02:52:52;;;;;;;4.97;1.60;;;5.80;90.20;;;;;;5077669;28;20048;-78
2021/11/02 02:55:21;;;;;;;1.92;1.10;;;5.90;90.30;;;;;;5082897;28;20040;-78
2021/11/02 02:57:55;;;;;;;3.05;1.58;;;5.80;90.30;;;;;;5086747;28;20043;-78
2021/11/02 03:00:24;;;;;;;2.28;1.30;;;5.80;90.30;;;;;;5060951;28;20048;-78
2021/11/02 03:02:53;;;;;;;3.00;1.10;;;5.80;90.30;;;;;;5076204;28;20412;-79
2021/11/02 03:05:24;;;;;;;2.70;1.20;;;5.80;90.40;;;;;;5094824;28;20044;-79
2021/11/02 03:07:59;;;;;;;2.50;0.90;;;5.80;90.40;;;;;;5072290;28;20044;-79
2021/11/02 03:10:27;;;;;;;5.30;1.33;;;5.70;90.50;;;;;;5095279;28;20051;-79
2021/11/02 03:13:01;;;;;;;2.70;1.20;;;5.70;90.70;;;;;;5084028;28;20056;-79
2021/11/02 03:18:54;;;;;;;6.22;1.20;;;5.50;90.80;;;;;;5088757;28;20037;-78
2021/11/02 03:44:33;;;;;;;5.63;2.45;;;4.60;91.50;;;;;;5084819;28;20053;-79
2021/11/02 03:58:24;;;;;;;5.93;2.10;;;4.20;92.20;;;;;;5042864;28;20057;-79
2021/11/02 04:31:54;;;;;;;10.80;4.85;;;3.50;92.70;;;;;;5062869;28;20056;-79
2021/11/02 04:46:05;;;;;;;10.50;5.57;;;3.30;93.00;;;;;;5048903;28;20076;-79
2021/11/02 04:57:56;;;;;;;9.68;5.50;;;3.20;92.90;;;;;;5033426;28;20095;-79
2021/11/02 05:08:50;;;;;;;22.30;7.93;;;2.80;93.00;;;;;;5033857;28;20087;-78
2021/11/02 05:48:33;;;;;;;16.38;6.55;;;2.30;93.60;;;;;;5076507;28;20052;-78
2021/11/02 05:54:00;;;;;;;13.32;7.43;;;2.30;93.50;;;;;;5090358;28;20493;-78
2021/11/02 05:56:37;;;;;;;16.60;7.10;;;2.30;93.50;;;;;;5090852;28;20044;-78
2021/11/02 06:02:06;;;;;;;18.50;7.47;;;2.20;93.50;;;;;;5074283;28;20521;-78
2021/11/02 06:10:21;;;;;;;21.17;7.60;;;2.10;93.40;;;;;;5075555;28;20052;-80
2021/11/02 06:23:25;;;;;;;16.25;7.32;;;2.00;93.40;;;;;;5071505;28;20052;-80
2021/11/02 06:30:52;;;;;;;30.63;11.55;;;1.80;93.60;;;;;;5096502;28;20043;-79
2021/11/02 06:53:17;;;;;;;42.35;13.90;;;1.90;93.90;;;;;;5042776;28;20529;-80
2021/11/02 07:15:46;;;;;;;128.82;15.07;;;1.70;94.10;;;;;;5075465;28;20088;-78
2021/11/02 07:23:22;;;;;;;37.03;11.18;;;1.60;93.70;;;;;;5086739;28;20529;-78
2021/11/02 07:26:20;;;;;;;35.58;11.45;;;1.50;93.60;;;;;;5070127;28;20044;-79
2021/11/02 08:48:19;;;;;;;50.95;23.92;;;3.00;95.30;;;;;;5071600;28;20052;-81
2021/11/02 08:50:52;;;;;;;48.75;22.80;;;3.00;95.40;;;;;;5072557;28;20044;-80
2021/11/02 08:53:22;;;;;;;43.92;18.83;;;3.10;95.40;;;;;;5071210;28;20394;-80
2021/11/02 08:55:51;;;;;;;40.28;21.55;;;3.20;95.50;;;;;;5054669;28;20401;-80
2021/11/02 08:58:23;;;;;;;46.47;23.63;;;3.20;95.50;;;;;;5071269;28;20052;-79
2021/11/02 09:01:02;;;;;;;52.50;24.20;;;3.30;95.50;;;;;;5054262;28;20048;-80
2021/11/02 09:03:37;;;;;;;43.70;22.65;;;3.40;95.50;;;;;;5054289;28;20445;-79
2021/11/02 09:06:08;;;;;;;41.75;21.85;;;3.50;95.60;;;;;;5090032;28;20124;-80
2021/11/02 09:08:46;;;;;;;40.72;21.08;;;3.60;95.70;;;;;;5094467;28;20481;-78
2021/11/02 09:11:15;;;;;;;34.03;19.50;;;3.60;95.80;;;;;;5086256;28;20031;-79
2021/11/02 09:13:47;;;;;;;36.28;18.80;;;3.80;95.80;;;;;;5092005;28;20051;-79
2021/11/02 09:16:17;;;;;;;31.77;18.30;;;3.80;95.80;;;;;;5092162;28;20066;-79
2021/11/02 09:18:46;;;;;;;32.95;15.90;;;3.90;95.80;;;;;;5090669;28;20512;-81
2021/11/02 09:21:15;;;;;;;22.30;14.32;;;4.00;95.90;;;;;;5090887;28;20059;-79
2021/11/02 09:23:44;;;;;;;27.35;15.20;;;4.10;96.00;;;;;;5092212;28;20394;-79
2021/11/02 09:26:15;;;;;;;28.60;14.40;;;4.20;96.00;;;;;;5090234;28;20063;-78
2021/11/02 09:28:44;;;;;;;24.08;12.77;;;4.30;96.00;;;;;;5088772;28;20059;-79
2021/11/02 09:31:13;;;;;;;20.88;11.65;;;4.40;96.00;;;;;;5091311;28;20095;-79
2021/11/02 09:33:41;;;;;;;23.52;10.85;;;4.50;95.90;;;;;;5067498;28;20049;-81
2021/11/02 09:36:13;;;;;;;16.88;9.90;;;4.60;95.90;;;;;;5090315;28;20048;-80
2021/11/02 09:38:41;;;;;;;23.38;9.95;;;4.70;95.90;;;;;;5089900;28;20047;-78
2021/11/02 09:41:43;;;;;;;13.63;7.95;;;4.80;96.10;;;;;;5089567;28;20048;-79
2021/11/02 09:44:13;;;;;;;13.40;6.57;;;4.90;96.20;;;;;;5089137;28;20044;-79
2021/11/02 09:47:38;;;;;;;14.23;6.00;;;5.10;96.30;;;;;;5089597;28;20048;-79
2021/11/02 09:50:42;;;;;;;13.07;6.63;;;5.20;96.30;;;;;;5022192;28;20049;-78
2021/11/02 09:53:33;;;;;;;9.23;3.35;;;5.40;96.30;;;;;;5005649;28;20256;-79
2021/11/02 09:56:31;;;;;;;5.38;2.20;;;5.60;96.40;;;;;;5021451;28;20057;-78
2021/11/02 09:59:36;;;;;;;11.75;2.45;;;5.80;96.30;;;;;;4980434;28;20057;-79
2021/11/02 10:02:22;;;;;;;5.50;1.70;;;6.00;96.00;;;;;;5013415;28;20041;-79
2021/11/02 10:05:26;;;;;;;9.05;1.98;;;6.20;95.70;;;;;;5020995;28;20057;-80
2021/11/02 10:08:32;;;;;;;9.23;2.45;;;6.30;95.50;;;;;;5041107;28;20404;-79
2021/11/02 10:11:15;;;;;;;6.72;1.83;;;6.50;95.20;;;;;;5036157;28;20552;-79
2021/11/02 10:13:52;;;;;;;9.00;1.80;;;6.70;94.90;;;;;;5030911;28;20148;-79
2021/11/02 10:16:39;;;;;;;10.38;1.80;;;6.80;94.50;;;;;;5038488;28;20088;-79
2021/11/02 10:19:07;;;;;;;7.50;1.40;;;7.00;94.20;;;;;;5024738;28;20056;-78
2021/11/02 10:21:56;;;;;;;8.52;1.70;;;7.10;93.70;;;;;;5045437;28;20052;-78
2021/11/02 10:24:48;;;;;;;5.75;1.48;;;7.30;93.00;;;;;;5060915;28;20053;-78
2021/11/02 10:27:48;;;;;;;6.40;1.67;;;7.40;92.50;;;;;;5071518;28;20048;-77
2021/11/02 10:30:38;;;;;;;5.78;1.52;;;7.60;91.50;;;;;;5071136;28;20393;-78
2021/11/02 10:33:17;;;;;;;6.90;1.40;;;7.70;91.30;;;;;;5073200;28;20053;-78
2021/11/02 10:36:14;;;;;;;9.02;1.65;;;7.80;90.90;;;;;;5088520;28;20468;-78
2021/11/02 10:38:55;;;;;;;6.88;1.50;;;8.00;90.80;;;;;;5090437;28;20051;-78
2021/11/02 10:41:33;;;;;;;4.43;1.13;;;8.20;89.60;;;;;;5090226;28;20051;-77
2021/11/02 10:44:51;;;;;;;10.68;1.70;;;8.30;89.40;;;;;;5087928;28;20052;-78
2021/11/02 10:47:32;;;;;;;6.13;1.20;;;8.50;88.70;;;;;;5075363;28;20405;-76
2021/11/02 10:50:10;;;;;;;6.22;1.60;;;8.60;87.90;;;;;;5089715;28;20044;-76
2021/11/02 10:52:39;;;;;;;10.40;1.58;;;8.80;87.60;;;;;;5089331;28;20056;-78
2021/11/02 10:55:22;;;;;;;6.03;1.13;;;9.00;87.30;;;;;;5092386;28;20048;-78
2021/11/02 10:58:05;;;;;;;7.15;1.20;;;9.20;86.80;;;;;;5092816;28;20051;-78
2021/11/02 11:00:34;;;;;;;10.20;1.53;;;9.50;86.10;;;;;;5092024;28;20044;-77
2021/11/02 11:03:09;;;;;;;8.18;1.50;;;9.70;85.10;;;;;;5093259;28;20432;-78
2021/11/02 11:05:37;;;;;;;11.30;1.75;;;9.80;84.40;;;;;;5090947;28;20040;-78
2021/11/02 11:08:05;;;;;;;9.05;1.20;;;10.00;83.80;;;;;;5093003;28;20048;-74
2021/11/02 11:10:33;;;;;;;4.75;0.95;;;10.10;83.40;;;;;;5074548;28;20047;-78
2021/11/02 11:13:02;;;;;;;7.45;0.90;;;10.20;81.90;;;;;;5090105;28;20051;-75
2021/11/02 11:15:35;;;;;;;4.20;0.90;;;10.30;80.30;;;;;;5094327;28;20516;-76
2021/11/02 11:18:08;;;;;;;4.30;0.93;;;10.30;80.30;;;;;;5094484;28;20044;-76
2021/11/02 11:20:37;;;;;;;;;;;10.50;79.30;;;;;;5076552;28;20059;-76
2021/11/02 11:23:10;;;;;;;4.85;1.05;;;10.50;78.60;;;;;;5093860;28;19920;-76
2021/11/02 11:25:51;;;;;;;5.38;0.70;;;10.60;78.30;;;;;;5093267;28;20047;-76
2021/11/02 11:28:20;;;;;;;6.10;0.63;;;10.70;77.80;;;;;;5093176;28;20032;-76
2021/11/02 11:30:51;;;;;;;6.97;1.08;;;10.80;76.30;;;;;;5094364;28;20051;-76
2021/11/02 11:33:19;;;;;;;2.80;0.50;;;11.00;75.40;;;;;;5092940;28;20048;-76
2021/11/02 11:35:49;;;;;;;4.82;0.77;;;11.30;75.40;;;;;;5093006;28;20063;-77
2021/11/02 11:38:18;;;;;;;10.70;1.90;;;11.50;73.20;;;;;;5094162;28;20048;-77
2021/11/02 11:40:46;;;;;;;5.50;1.15;;;11.80;72.90;;;;;;5093855;28;20651;-76
2021/11/02 11:43:15;;;;;;;6.22;1.00;;;12.10;72.90;;;;;;5093462;28;20056;-77
2021/11/02 11:45:46;;;;;;;5.57;0.90;;;12.50;72.80;;;;;;5093997;28;20044;-76
2021/11/02 11:48:21;;;;;;;3.63;0.80;;;12.80;69.30;;;;;;5091823;28;20055;-76
2021/11/02 11:50:55;;;;;;;6.65;1.00;;;13.10;69.30;;;;;;5093978;28;20056;-76
2021/11/02 11:53:25;;;;;;;4.57;1.02;;;13.40;69.80;;;;;;5093746;28;20059;-77
2021/11/02 11:56:06;;;;;;;2.55;0.57;;;13.70;67.20;;;;;;5093738;28;20505;-78
2021/11/02 11:58:35;;;;;;;6.65;0.80;;;13.90;66.30;;;;;;5093845;28;20059;-77
2021/11/02 12:01:26;;;;;;;5.95;0.52;;;14.00;64.30;;;;;;5093507;28;20533;-77
2021/11/02 12:04:08;;;;;;;5.60;0.85;;;14.00;63.90;;;;;;5092015;28;20055;-77
2021/11/02 12:06:50;;;;;;;5.93;1.05;;;14.00;64.30;;;;;;5092492;28;20074;-75
2021/11/02 12:09:20;;;;;;;9.10;1.33;;;14.00;64.00;;;;;;5093655;28;20044;-75
2021/11/02 12:11:49;;;;;;;6.97;1.02;;;14.10;64.70;;;;;;5093981;27;20052;-75
2021/11/02 12:14:19;;;;;;;5.63;1.23;;;14.40;62.90;;;;;;5093266;28;20411;-75
2021/11/02 12:16:48;;;;;;;7.35;2.00;;;14.70;61.40;;;;;;5093423;28;20044;-76
2021/11/02 12:19:21;;;;;;;6.57;2.20;;;15.00;62.90;;;;;;5091509;28;20059;-76
2021/11/02 12:22:03;;;;;;;15.35;1.88;;;15.30;60.80;;;;;;5092146;28;20042;-76
2021/11/02 12:24:33;;;;;;;9.95;1.33;;;15.50;59.40;;;;;;5093216;28;20054;-76
2021/11/02 12:27:10;;;;;;;12.43;2.05;;;15.70;60.60;;;;;;5092934;28;20063;-75
2021/11/02 12:29:39;;;;;;;9.63;1.80;;;16.10;58.00;;;;;;5093378;28;20044;-76
2021/11/02 12:32:11;;;;;;;7.72;2.33;;;16.30;56.50;;;;;;5093201;28;20056;-75
2021/11/02 12:34:55;;;;;;;7.57;1.50;;;16.40;55.70;;;;;;5092732;28;20047;-75
2021/11/02 12:37:32;;;;;;;7.07;1.20;;;16.60;54.70;;;;;;5092919;28;20082;-76
2021/11/02 12:40:17;;;;;;;4.50;1.13;;;16.90;55.80;;;;;;5092955;28;20048;-75
2021/11/02 12:42:45;;;;;;;3.60;0.95;;;17.30;52.30;;;;;;5091675;28;20059;-75
2021/11/02 12:45:18;;;;;;;5.50;1.00;;;17.10;50.90;;;;;;5092496;28;20064;-76
2021/11/02 12:47:48;;;;;;;3.97;0.90;;;16.80;51.60;;;;;;5091145;28;20055;-75
2021/11/02 12:50:18;;;;;;;7.03;0.90;;;16.60;51.40;;;;;;5088329;28;20055;-76
2021/11/02 12:52:46;;;;;;;5.60;1.10;;;16.10;52.40;;;;;;5091923;28;20032;-76
2021/11/02 12:55:17;;;;;;;2.38;0.70;;;15.90;52.90;;;;;;5091107;28;20405;-75
2021/11/02 12:57:53;;;;;;;5.50;0.88;;;16.10;52.60;;;;;;5091473;28;20062;-76
2021/11/02 13:00:29;;;;;;;3.85;0.95;;;16.30;52.70;;;;;;5072167;28;20502;-75
2021/11/02 13:03:02;;;;;;;2.88;0.80;;;16.70;53.00;;;;;;5071407;28;20047;-75
2021/11/02 13:05:31;;;;;;;7.03;1.00;;;16.80;49.40;;;;;;5088455;28;20040;-75
2021/11/02 13:08:07;;;;;;;6.10;1.15;;;16.30;50.30;;;;;;5090189;28;20040;-75
2021/11/02 13:10:41;;;;;;;6.15;1.10;;;15.60;51.30;;;;;;5088186;28;20052;-75
2021/11/02 13:13:09;;;;;;;4.90;0.80;;;15.30;53.00;;;;;;5091093;28;20040;-75
2021/11/02 13:15:49;;;;;;;8.15;1.17;;;15.70;52.50;;;;;;5089652;28;20048;-76
2021/11/02 13:18:31;;;;;;;7.38;1.00;;;16.10;52.60;;;;;;5090938;28;20044;-75
2021/11/02 13:21:33;;;;;;;5.05;0.80;;;16.00;51.90;;;;;;5089071;28;20051;-77
2021/11/02 13:24:07;;;;;;;15.50;2.22;;;16.30;50.90;;;;;;5090809;28;20398;-75
2021/11/02 13:26:40;;;;;;;4.10;0.90;;;16.80;50.40;;;;;;5090831;28;20237;-77
2021/11/02 13:29:23;;;;;;;5.43;2.00;;;17.20;50.70;;;;;;5092330;28;20397;-77
2021/11/02 13:31:54;;;;;;;7.23;2.53;;;17.70;48.90;;;;;;5092297;28;20052;-73
2021/11/02 13:34:36;;;;;;;5.93;1.30;;;17.80;47.80;;;;;;5090630;28;20040;-74
2021/11/02 13:37:10;;;;;;;3.85;0.80;;;17.80;47.50;;;;;;5091476;28;20040;-77
2021/11/02 13:39:58;;;;;;;4.57;0.90;;;17.90;48.10;;;;;;5090601;28;20489;-74
2021/11/02 13:42:48;;;;;;;3.90;0.63;;;18.40;47.30;;;;;;5088775;28;20051;-74
2021/11/02 13:45:21;;;;;;;6.35;1.23;;;18.90;46.30;;;;;;5090264;28;20052;-76
2021/11/02 13:47:50;;;;;;;5.82;1.20;;;19.10;46.20;;;;;;5072971;28;20055;-76
2021/11/02 13:50:21;;;;;;;3.65;0.95;;;19.00;44.80;;;;;;5090692;28;20063;-76
2021/11/02 13:52:52;;;;;;;6.90;1.10;;;18.90;45.10;;;;;;5089695;28;20036;-76
2021/11/02 13:55:22;;;;;;;9.27;1.17;;;18.60;45.40;;;;;;5072690;28;20055;-76
2021/11/02 13:57:50;;;;;;;5.78;1.02;;;18.20;46.20;;;;;;5090776;28;20036;-76
2021/11/02 14:00:17;;;;;;;3.30;0.80;;;17.80;45.70;;;;;;5090749;28;20044;-76
2021/11/02 14:02:46;;;;;;;7.63;1.00;;;17.50;45.20;;;;;;5089291;28;20050;-76
2021/11/02 14:05:14;;;;;;;4.72;0.80;;;17.00;46.30;;;;;;5072490;28;20040;-77
2021/11/02 14:07:43;;;;;;;5.72;1.10;;;16.50;47.10;;;;;;5085231;28;20405;-77
2021/11/02 14:10:11;;;;;;;4.88;1.02;;;16.40;47.70;;;;;;5090802;28;20420;-77
2021/11/02 14:12:40;;;;;;;5.47;0.80;;;16.30;48.30;;;;;;5090752;28;20039;-76
2021/11/02 14:15:11;;;;;;;4.68;0.80;;;15.90;48.80;;;;;;5066986;28;20048;-77
2021/11/02 14:17:49;;;;;;;3.78;0.98;;;15.50;49.80;;;;;;5089210;28;20052;-77
2021/11/02 14:20:35;;;;;;;5.80;1.10;;;15.20;50.80;;;;;;5090697;28;20047;-77
2021/11/02 14:23:06;;;;;;;5.63;1.05;;;14.90;52.00;;;;;;5087078;28;20048;-77
2021/11/02 14:25:40;;;;;;;5.85;0.70;;;14.60;53.10;;;;;;5090570;28;20040;-77
2021/11/02 14:28:09;;;;;;;6.38;0.90;;;14.40;53.20;;;;;;5092768;28;20056;-77
2021/11/02 14:30:37;;;;;;;5.68;1.00;;;14.20;53.90;;;;;;5093102;28;20505;-77
2021/11/02 14:33:21;;;;;;;5.90;0.98;;;14.30;54.30;;;;;;5094496;28;20496;-77
2021/11/02 14:36:02;;;;;;;4.65;0.93;;;14.20;53.80;;;;;;5094490;28;20060;-77
2021/11/02 14:38:48;;;;;;;3.47;0.80;;;13.90;54.10;;;;;;5075071;28;20193;-77
2021/11/02 14:41:29;;;;;;;3.20;0.80;;;13.50;55.30;;;;;;5075544;28;20070;-77
2021/11/02 14:44:25;;;;;;;4.57;0.88;;;13.00;56.60;;;;;;5092532;28;20051;-77
2021/11/02 14:46:56;;;;;;;4.75;0.98;;;12.60;58.00;;;;;;5091573;28;20048;-74
2021/11/02 14:49:30;;;;;;;10.35;1.38;;;12.30;58.90;;;;;;5093585;28;20540;-74
2021/11/02 14:52:06;;;;;;;6.68;1.02;;;12.00;60.20;;;;;;5094759;28;20086;-75
2021/11/02 14:54:42;;;;;;;4.93;1.00;;;11.90;61.30;;;;;;5094314;28;20051;-73
2021/11/02 14:57:18;;;;;;;3.45;1.13;;;11.80;62.30;;;;;;5095030;28;20051;-74
2021/11/02 14:59:48;;;;;;;3.05;0.65;;;11.50;63.80;;;;;;5095448;28;20044;-74
2021/11/02 15:02:16;;;;;;;7.60;1.20;;;11.30;65.30;;;;;;5077034;28;20052;-75
2021/11/02 15:04:44;;;;;;;2.67;0.60;;;11.10;66.90;;;;;;5092089;28;20040;-74
2021/11/02 15:07:14;;;;;;;2.92;0.55;;;10.80;68.60;;;;;;5090267;28;20048;-73
2021/11/02 15:09:43;;;;;;;3.97;0.40;;;10.60;69.30;;;;;;5093526;28;20508;-74
2021/11/02 15:12:12;;;;;;;2.58;0.60;;;10.30;70.40;;;;;;5089911;28;20052;-73
2021/11/02 15:14:41;;;;;;;2.42;0.50;;;10.20;71.70;;;;;;5089260;28;20055;-77
2021/11/02 15:17:12;;;;;;;2.95;0.70;;;10.00;72.50;;;;;;5093197;28;20051;-77
2021/11/02 15:19:43;;;;;;;2.78;0.45;;;9.90;72.50;;;;;;5091885;28;20056;-77
2021/11/02 15:22:15;;;;;;;2.42;0.55;;;9.70;72.80;;;;;;5090118;28;20044;-78
2021/11/02 15:24:58;;;;;;;2.37;0.63;;;9.80;72.80;;;;;;5087643;28;20040;-77
2021/11/02 15:27:32;;;;;;;3.10;0.70;;;10.00;72.50;;;;;;5090282;28;20054;-77
2021/11/02 15:30:08;;;;;;;3.88;0.80;;;9.90;72.20;;;;;;5093367;28;20307;-78
2021/11/02 15:32:42;;;;;;;3.10;0.90;;;9.80;72.30;;;;;;5087001;28;20044;-78
2021/11/02 15:35:16;;;;;;;2.10;0.85;;;9.80;72.70;;;;;;5092649;28;20520;-77
2021/11/02 15:37:47;;;;;;;3.53;0.85;;;9.70;73.00;;;;;;5090809;28;20415;-79
2021/11/02 15:40:16;;;;;;;5.20;1.00;;;9.50;73.30;;;;;;5092798;28;20508;-77
2021/11/02 15:42:49;;;;;;;4.10;0.80;;;9.40;74.00;;;;;;5093045;28;20066;-78
2021/11/02 15:45:36;;;;;;;7.03;0.93;;;9.30;75.00;;;;;;5092657;28;20047;-77
2021/11/02 15:48:18;;;;;;;10.05;1.38;;;9.20;75.60;;;;;;5090344;28;20390;-76
2021/11/02 15:50:51;;;;;;;3.67;1.00;;;9.00;76.10;;;;;;5093256;28;20043;-76
2021/11/02 15:53:21;;;;;;;3.30;0.85;;;9.00;76.60;;;;;;5091363;28;20067;-76
2021/11/02 15:56:00;;;;;;;4.05;0.90;;;8.90;76.90;;;;;;5092499;28;20386;-76
2021/11/02 15:58:29;;;;;;;5.10;1.02;;;8.90;77.40;;;;;;5091197;28;20032;-78
2021/11/02 16:00:57;;;;;;;3.08;0.73;;;8.80;77.40;;;;;;5092146;28;20059;-78
2021/11/02 16:03:35;;;;;;;5.78;1.02;;;8.80;77.50;;;;;;5092412;28;20040;-78
2021/11/02 16:06:04;;;;;;;5.75;1.33;;;8.70;77.90;;;;;;5089038;28;20519;-78
2021/11/02 16:08:34;;;;;;;7.10;1.00;;;8.60;78.20;;;;;;5093937;28;20055;-78
2021/11/02 16:11:05;;;;;;;5.32;0.93;;;8.50;78.50;;;;;;5089774;28;20052;-78
2021/11/02 16:13:32;;;;;;;6.20;1.15;;;8.40;78.80;;;;;;5092322;28;20040;-78
2021/11/02 16:16:01;;;;;;;9.30;1.00;;;8.40;78.80;;;;;;5088354;28;20487;-78
2021/11/02 16:18:32;;;;;;;3.55;0.80;;;8.30;78.70;;;;;;5093101;28;20051;-78
2021/11/02 16:21:03;;;;;;;6.57;0.98;;;8.20;78.90;;;;;;5090686;28;20048;-78
2021/11/02 16:23:43;;;;;;;5.70;0.90;;;8.10;79.00;;;;;;5090522;28;20425;-78
2021/11/02 16:26:17;;;;;;;3.78;0.80;;;8.00;79.60;;;;;;5074568;28;20044;-78
2021/11/02 16:28:45;;;;;;;3.55;0.80;;;7.90;79.60;;;;;;5087564;28;20044;-78
2021/11/02 16:31:27;;;;;;;2.97;1.05;;;7.80;79.70;;;;;;5089830;28;20500;-78
2021/11/02 16:33:56;;;;;;;5.93;1.00;;;7.70;80.30;;;;;;5091065;28;20401;-78
2021/11/02 16:36:30;;;;;;;4.65;1.00;;;7.70;80.40;;;;;;5093506;28;20039;-78
2021/11/02 16:39:16;;;;;;;6.80;1.20;;;7.70;80.70;;;;;;5091598;28;20039;-78
2021/11/02 16:42:02;;;;;;;5.45;1.67;;;7.60;80.80;;;;;;5092382;28;20044;-78
2021/11/02 16:44:38;;;;;;;7.57;3.13;;;7.50;80.90;;;;;;5091148;28;20050;-78
2021/11/02 16:47:13;;;;;;;9.20;2.83;;;7.40;81.20;;;;;;5089201;28;20044;-78
2021/11/02 16:49:42;;;;;;;8.02;3.00;;;7.30;81.40;;;;;;5068677;28;20044;-78
2021/11/02 16:52:12;;;;;;;15.85;4.55;;;7.30;81.60;;;;;;5090059;28;20044;-78
2021/11/02 16:54:43;;;;;;;12.20;3.60;;;7.20;81.90;;;;;;5090770;28;20044;-78
2021/11/02 16:57:22;;;;;;;10.05;3.75;;;7.10;82.30;;;;;;5093024;28;20044;-78
2021/11/02 17:00:04;;;;;;;15.52;5.70;;;7.10;82.70;;;;;;5067768;28;20055;-78
2021/11/02 17:02:37;;;;;;;16.38;4.50;;;7.10;82.90;;;;;;5088449;28;20378;-78
2021/11/02 17:05:39;;;;;;;;;;;7.00;83.00;;;;;;5092024;28;20058;-78
2021/11/02 17:08:14;;;;;;;15.30;5.13;;;7.00;83.30;;;;;;5056852;28;19923;-79
2021/11/02 17:10:47;;;;;;;13.85;5.53;;;7.00;83.30;;;;;;5111154;28;20397;-79
2021/11/02 17:13:25;;;;;;;16.75;5.93;;;7.00;83.40;;;;;;5092994;28;20052;-77
2021/11/02 17:16:14;;;;;;;14.38;5.97;;;7.10;83.70;;;;;;5089471;28;20048;-77
2021/11/02 17:18:55;;;;;;;15.50;5.93;;;7.10;83.80;;;;;;5072864;28;20036;-76
2021/11/02 17:21:25;;;;;;;12.18;5.13;;;7.30;83.90;;;;;;5086171;28;20051;-77
2021/11/02 17:23:53;;;;;;;17.83;4.63;;;7.30;84.00;;;;;;5094072;28;20044;-77
2021/11/02 17:26:23;;;;;;;19.55;6.07;;;7.30;84.10;;;;;;5074201;28;20059;-77
2021/11/02 17:28:53;;;;;;;14.23;5.38;;;7.30;84.30;;;;;;5092427;28;20052;-76
2021/11/02 17:31:24;;;;;;;18.38;7.22;;;7.40;84.50;;;;;;5088741;28;20405;-75
2021/11/02 17:33:58;;;;;;;13.88;6.60;;;7.40;84.70;;;;;;5089381;28;20040;-76
2021/11/02 17:36:27;;;;;;;15.52;7.55;;;7.40;84.80;;;;;;5071100;28;20051;-76
2021/11/02 17:38:56;;;;;;;13.75;8.02;;;7.50;85.10;;;;;;5071973;28;20043;-76
2021/11/02 17:41:24;;;;;;;10.65;5.82;;;7.50;85.40;;;;;;5071719;28;20047;-76
2021/11/02 17:43:52;;;;;;;9.35;4.90;;;7.50;85.50;;;;;;5077039;28;20048;-76
2021/11/02 17:46:21;;;;;;;10.20;4.78;;;7.60;85.50;;;;;;5074441;28;20393;-77
2021/11/02 17:48:50;;;;;;;13.25;5.70;;;7.50;85.60;;;;;;5071030;28;21658;-78
2021/11/02 17:51:20;;;;;;;15.75;5.20;;;7.60;85.70;;;;;;5072405;28;20398;-77
2021/11/02 17:53:50;;;;;;;13.55;3.53;;;7.60;85.80;;;;;;5083795;28;20040;-78
2021/11/02 17:56:19;;;;;;;8.82;3.28;;;7.60;86.00;;;;;;5086249;28;20310;-78
2021/11/02 17:58:49;;;;;;;9.77;2.03;;;7.70;86.20;;;;;;5088579;28;20043;-78
2021/11/02 18:01:19;;;;;;;6.72;1.90;;;7.70;86.30;;;;;;5091019;28;20406;-81
2021/11/02 18:03:47;;;;;;;6.07;1.80;;;7.70;86.40;;;;;;5091307;28;20044;-77
2021/11/02 18:06:16;;;;;;;8.05;2.47;;;7.80;86.40;;;;;;5094774;28;20604;-83
2021/11/02 18:08:46;;;;;;;9.90;1.98;;;7.80;86.40;;;;;;5094661;28;20409;-80
2021/11/02 18:11:15;;;;;;;10.65;3.00;;;7.80;86.50;;;;;;5088884;28;20043;-79
2021/11/02 18:13:44;;;;;;;7.22;2.15;;;7.80;86.60;;;;;;5095878;28;20043;-78